Terminal Aerodrome Forecast
Issued by NWS Melbourne, FL

Home | Current Version | Previous Version | Text Only | Print | Product List | Glossary On
Versions: 1 2 3 4 5 6 7 8 9 10 11 12 13 14 15 16 17
000
FTUS42 KMLB 172300
TAFVRB
TAF
KVRB 172331Z 1800/1824 07012G18KT P6SM VCSH SCT015 BKN045
     FM180600 08012KT P6SM -SHRA SCT008 BKN015 OVC020
      TEMPO 1809/1813 5SM -RA BR OVC015
     FM181400 13014G23KT P6SM VCSH SCT015 BKN035 OVC070=

USA.gov is the U.S. government's official web portal to all federal, state and local government web resources and services.